Time;durP1;ratioP1;P1;durP2;ratioP2;P2;SDS_P1;SDS_P2;PMS_P1;PMS_P2;Temp;Humidity;BMP_temperature;BMP_pressure;BME280_temperature;BME280_humidity;BME280_pressure;Samples;Min_cycle;Max_cycle;Signal;HPM_P1;HPM_P2
2022/09/09 00:01:29;;;;;;;8.70;5.00;;;;;;;14.28;61.81;100166.30;106168;1276;25978;-75
2022/09/09 00:04:31;;;;;;;9.30;5.80;;;;;;;14.23;62.13;100165.90;105778;1277;22731;-74
2022/09/09 00:07:42;;;;;;;7.10;5.30;;;;;;;14.19;62.57;100163.88;105869;1276;25913;-74
2022/09/09 00:10:20;;;;;;;8.20;5.30;;;;;;;14.12;62.82;100154.68;105825;1276;22557;-80
2022/09/09 00:12:57;;;;;;;8.40;4.70;;;;;;;14.08;63.23;100150.70;105749;1275;25219;-75
2022/09/09 00:15:47;;;;;;;8.20;5.60;;;;;;;14.02;63.63;100157.96;105831;1277;25504;-76
2022/09/09 00:18:23;;;;;;;9.40;6.10;;;;;;;13.97;63.71;100155.26;105649;1276;23317;-79
2022/09/09 00:21:17;;;;;;;;;;;;;;;13.94;63.84;100151.80;106405;1270;22459;-78
2022/09/09 00:23:51;;;;;;;6.60;4.70;;;;;;;13.82;64.01;100151.77;106414;1268;22722;-76
2022/09/09 00:26:43;;;;;;;8.30;6.00;;;;;;;13.73;64.37;100148.45;106501;1268;22642;-78
2022/09/09 00:29:16;;;;;;;9.00;5.40;;;;;;;13.73;64.76;100146.88;106239;1268;25301;-79
2022/09/09 00:31:44;;;;;;;8.90;5.10;;;;;;;13.72;64.95;100143.52;106446;1268;22703;-80
2022/09/09 00:34:21;;;;;;;9.70;5.80;;;;;;;13.73;65.10;100141.39;106153;1267;22548;-79
2022/09/09 00:36:51;;;;;;;8.50;5.80;;;;;;;13.73;65.38;100141.92;106183;1269;25297;-81
2022/09/09 00:39:42;;;;;;;11.60;5.70;;;;;;;13.72;65.61;100140.53;107194;1267;22537;-79
2022/09/09 00:42:44;;;;;;;10.70;6.10;;;;;;;13.72;65.80;100139.65;106358;1273;26027;-78
2022/09/09 00:45:14;;;;;;;9.10;6.20;;;;;;;13.67;65.74;100141.19;105814;1279;24333;-80
2022/09/09 00:47:51;;;;;;;8.20;5.50;;;;;;;13.59;65.93;100140.31;106325;1279;22855;-79
2022/09/09 00:50:40;;;;;;;8.10;5.60;;;;;;;13.59;66.27;100139.60;105621;1279;25398;-79
2022/09/09 00:53:37;;;;;;;9.30;6.60;;;;;;;13.58;66.40;100140.17;105784;1281;22564;-77
2022/09/09 00:56:21;;;;;;;8.90;6.00;;;;;;;13.52;66.54;100140.69;105521;1279;24843;-77
2022/09/09 00:59:12;;;;;;;7.50;5.30;;;;;;;13.47;66.99;100140.42;105273;1279;22537;-81
2022/09/09 01:01:41;;;;;;;10.70;6.10;;;;;;;13.53;67.14;100139.75;105977;1274;22540;-79
2022/09/09 01:04:16;;;;;;;8.60;5.70;;;;;;;13.54;67.16;100137.80;105952;1274;22524;-77
2022/09/09 01:07:19;;;;;;;13.00;5.80;;;;;;;13.54;67.22;100140.48;105987;1277;22555;-79
2022/09/09 01:09:53;;;;;;;7.60;6.20;;;;;;;13.53;67.25;100144.71;106023;1274;22516;-79
2022/09/09 01:12:43;;;;;;;10.30;6.50;;;;;;;13.51;67.40;100144.77;106012;1274;22532;-83
2022/09/09 01:15:21;;;;;;;12.50;6.10;;;;;;;13.47;67.72;100150.13;105585;1280;23952;-77
2022/09/09 01:18:17;;;;;;;11.70;5.60;;;;;;;13.44;67.75;100147.20;105620;1280;22730;-80
2022/09/09 01:25:18;;;;;;;10.70;5.80;;;;;;;13.43;68.32;100136.79;105777;1278;26480;-80
2022/09/09 01:28:13;;;;;;;9.70;6.50;;;;;;;13.43;68.46;100135.05;105186;1282;25237;-80
2022/09/09 01:30:42;;;;;;;8.80;6.20;;;;;;;13.45;68.48;100131.09;105307;1282;23152;-76
2022/09/09 01:33:17;;;;;;;8.80;6.50;;;;;;;13.48;68.43;100127.30;105442;1276;26582;-79
2022/09/09 01:36:05;;;;;;;10.90;6.60;;;;;;;13.46;68.57;100123.98;105797;1278;26507;-79
2022/09/09 01:38:38;;;;;;;7.80;5.70;;;;;;;13.46;68.53;100124.52;105767;1277;24723;-77
2022/09/09 01:41:05;;;;;;;10.20;6.60;;;;;;;13.45;68.52;100123.32;105711;1278;22534;-75
2022/09/09 01:43:41;;;;;;;9.20;6.60;;;;;;;13.44;68.74;100123.17;105832;1274;22538;-77
2022/09/09 01:46:11;;;;;;;10.30;6.60;;;;;;;13.43;68.79;100126.38;105968;1269;22534;-77
2022/09/09 01:48:40;;;;;;;8.10;6.10;;;;;;;13.37;68.76;100129.17;106126;1268;26491;-76
2022/09/09 01:51:10;;;;;;;8.80;6.30;;;;;;;13.30;69.07;100128.80;105991;1270;22814;-77
2022/09/09 01:53:41;;;;;;;9.00;5.90;;;;;;;13.28;69.41;100129.56;106337;1268;25302;-81
2022/09/09 01:56:18;;;;;;;9.50;5.80;;;;;;;13.32;69.48;100128.21;106195;1268;22543;-81
2022/09/09 01:59:21;;;;;;;11.10;6.50;;;;;;;13.32;69.53;100130.34;106321;1268;25299;-82
2022/09/09 02:01:59;;;;;;;9.40;5.70;;;;;;;13.32;69.66;100129.63;105753;1280;22477;-82
2022/09/09 02:05:31;;;;;;;8.70;6.20;;;;;;;13.34;69.82;100131.36;105594;1280;22612;-83
2022/09/09 02:08:06;;;;;;;10.30;6.30;;;;;;;13.34;69.93;100131.89;105312;1284;22532;-85
2022/09/09 02:11:26;;;;;;;9.00;6.00;;;;;;;13.39;69.82;100121.85;105019;1285;25585;-84
2022/09/09 02:14:06;;;;;;;11.20;6.00;;;;;;;13.38;69.99;100124.54;103695;1297;25359;-77
2022/09/09 02:16:44;;;;;;;11.80;6.50;;;;;;;13.36;69.82;100123.70;103790;1297;22654;-76
2022/09/09 02:23:14;;;;;;;10.00;6.10;;;;;;;13.35;69.99;100118.59;104014;1294;22712;-77
2022/09/09 02:25:46;;;;;;;7.60;5.70;;;;;;;13.31;69.92;100116.75;104061;1293;24248;-74
2022/09/09 02:28:21;;;;;;;13.50;6.00;;;;;;;13.29;70.09;100115.39;103865;1295;22559;-77
2022/09/09 02:30:54;;;;;;;10.10;6.30;;;;;;;13.28;70.25;100109.59;103930;1294;22783;-75
2022/09/09 02:33:34;;;;;;;9.70;6.40;;;;;;;13.29;70.49;100108.67;104343;1288;22562;-78
2022/09/09 02:36:41;;;;;;;10.00;6.40;;;;;;;13.28;70.53;100114.36;104770;1288;22667;-75
2022/09/09 02:39:10;;;;;;;10.40;6.50;;;;;;;13.24;70.49;100120.29;104965;1281;22566;-78
2022/09/09 02:41:41;;;;;;;10.40;7.00;;;;;;;13.21;70.62;100121.07;105240;1281;23781;-78
2022/09/09 02:44:18;;;;;;;12.10;6.40;;;;;;;13.19;70.86;100125.18;105216;1281;22584;-79
2022/09/09 02:47:06;;;;;;;13.60;7.00;;;;;;;13.21;70.93;100123.72;105834;1276;22562;-78
2022/09/09 02:49:33;;;;;;;9.10;6.00;;;;;;;13.20;71.15;100120.56;106806;1267;22622;-73
2022/09/09 02:52:06;;;;;;;11.90;8.60;;;;;;;13.22;71.13;100128.98;106594;1267;22522;-75
2022/09/09 02:54:38;;;;;;;10.30;7.00;;;;;;;13.23;71.26;100132.34;106799;1268;25309;-75
2022/09/09 02:57:18;;;;;;;10.80;7.60;;;;;;;13.21;71.23;100135.74;107407;1267;22482;-82
2022/09/09 02:59:48;;;;;;;11.40;7.10;;;;;;;13.19;71.26;100134.91;107836;1273;22615;-81
2022/09/09 03:02:16;;;;;;;8.00;5.90;;;;;;;13.21;71.30;100134.69;106453;1273;22538;-83
2022/09/09 03:04:50;;;;;;;10.60;7.00;;;;;;;13.21;71.33;100133.44;106272;1272;22528;-83
2022/09/09 03:07:19;;;;;;;9.30;7.30;;;;;;;13.18;71.56;100134.57;106163;1273;23310;-83
2022/09/09 03:09:47;;;;;;;10.50;6.60;;;;;;;13.20;71.73;100128.17;106931;1273;22619;-77
2022/09/09 03:12:14;;;;;;;10.30;7.40;;;;;;;13.23;71.65;100128.27;106625;1274;25513;-77
2022/09/09 03:14:43;;;;;;;9.00;7.50;;;;;;;13.25;71.79;100126.80;106356;1273;26466;-78
2022/09/09 03:17:10;;;;;;;9.60;7.10;;;;;;;13.28;71.61;100126.38;107352;1268;22560;-76
2022/09/09 03:19:43;;;;;;;11.40;7.30;;;;;;;13.30;71.67;100124.39;107668;1267;24808;-77
2022/09/09 03:22:13;;;;;;;13.90;7.70;;;;;;;13.34;71.76;100120.76;107806;1268;25365;-77
2022/09/09 03:24:41;;;;;;;9.10;7.50;;;;;;;13.35;71.66;100126.20;107419;1268;22544;-76
2022/09/09 03:27:08;;;;;;;9.30;7.20;;;;;;;13.34;71.42;100127.46;107061;1274;22511;-75
2022/09/09 03:29:36;;;;;;;9.70;7.00;;;;;;;13.33;71.39;100119.71;106576;1271;25885;-77
2022/09/09 03:32:06;;;;;;;9.70;7.10;;;;;;;13.35;71.56;100122.48;106254;1269;25357;-77
2022/09/09 03:34:33;;;;;;;8.40;7.40;;;;;;;13.36;71.77;100121.93;106426;1271;25244;-77
2022/09/09 03:37:01;;;;;;;9.10;6.60;;;;;;;13.37;71.78;100119.96;106324;1271;26599;-76
2022/09/09 03:39:28;;;;;;;9.00;6.80;;;;;;;13.40;72.04;100115.99;106323;1274;25344;-82
2022/09/09 03:41:58;;;;;;;8.70;6.60;;;;;;;13.38;71.85;100113.21;106553;1274;25302;-78
2022/09/09 03:44:25;;;;;;;10.50;6.50;;;;;;;13.42;72.03;100112.08;106456;1273;25492;-76
2022/09/09 03:46:54;;;;;;;9.10;6.80;;;;;;;13.43;72.15;100113.09;106740;1273;22648;-76
2022/09/09 03:49:23;;;;;;;9.60;6.10;;;;;;;13.43;72.22;100113.82;107342;1273;24228;-78
2022/09/09 03:51:50;;;;;;;10.20;7.30;;;;;;;13.44;72.19;100115.04;106515;1273;22572;-79
2022/09/09 03:54:17;;;;;;;10.10;6.80;;;;;;;13.42;72.16;100119.66;106421;1273;24310;-75
2022/09/09 03:56:45;;;;;;;7.60;5.10;;;;;;;13.43;72.14;100121.21;106723;1273;25912;-83
2022/09/09 03:59:14;;;;;;;8.90;5.70;;;;;;;13.43;72.05;100130.25;107172;1273;25915;-77
2022/09/09 04:01:41;;;;;;;7.80;6.30;;;;;;;13.42;72.19;100127.09;106464;1268;25238;-75
2022/09/09 04:04:09;;;;;;;10.20;6.50;;;;;;;13.42;72.19;100129.21;106537;1267;23230;-77
2022/09/09 04:06:36;;;;;;;8.80;6.00;;;;;;;13.43;72.44;100130.27;106440;1267;22526;-79
2022/09/09 04:09:03;;;;;;;7.50;5.90;;;;;;;13.43;72.66;100123.35;106272;1268;22518;-82
2022/09/09 04:11:31;;;;;;;7.90;5.90;;;;;;;13.45;72.71;100124.20;106308;1267;22601;-84
2022/09/09 04:13:58;;;;;;;7.20;5.40;;;;;;;13.48;72.75;100122.71;106363;1267;24185;-81
2022/09/09 04:16:25;;;;;;;7.60;6.20;;;;;;;13.52;72.91;100122.10;106727;1268;25696;-83
2022/09/09 04:18:53;;;;;;;8.80;5.80;;;;;;;13.58;72.92;100120.52;107095;1268;22531;-79
2022/09/09 04:21:21;;;;;;;9.60;5.40;;;;;;;13.62;72.77;100119.02;107025;1267;24134;-79
2022/09/09 04:23:48;;;;;;;6.00;4.80;;;;;;;13.62;72.78;100118.30;107180;1267;25225;-81
2022/09/09 04:26:17;;;;;;;7.80;5.20;;;;;;;13.58;72.76;100121.76;107340;1267;22585;-79
2022/09/09 04:28:44;;;;;;;6.70;4.60;;;;;;;13.57;72.66;100121.98;106964;1270;22547;-78
2022/09/09 04:31:19;;;;;;;6.60;4.80;;;;;;;13.56;72.63;100120.77;106984;1267;25290;-78
2022/09/09 04:33:48;;;;;;;6.90;4.90;;;;;;;13.57;72.76;100123.92;107065;1268;25831;-81
2022/09/09 04:36:16;;;;;;;7.90;6.10;;;;;;;13.53;72.77;100124.20;106367;1267;22538;-79
2022/09/09 04:38:44;;;;;;;7.30;4.80;;;;;;;13.54;72.87;100123.98;106579;1270;25226;-81
2022/09/09 04:41:12;;;;;;;6.40;4.70;;;;;;;13.54;73.00;100121.70;106062;1277;22694;-79
2022/09/09 04:43:40;;;;;;;6.30;4.70;;;;;;;13.54;73.01;100123.64;106066;1274;26506;-78
2022/09/09 04:46:07;;;;;;;14.90;5.40;;;;;;;13.54;72.88;100123.46;105872;1274;22548;-79
2022/09/09 04:48:34;;;;;;;5.80;4.10;;;;;;;13.54;73.13;100123.13;105758;1278;22523;-79
2022/09/09 04:51:09;;;;;;;4.70;4.30;;;;;;;13.56;73.20;100127.84;105760;1280;25300;-77
2022/09/09 04:53:37;;;;;;;6.80;4.90;;;;;;;13.59;73.23;100133.60;105453;1277;23233;-82
2022/09/09 04:56:11;;;;;;;5.20;4.30;;;;;;;13.60;73.34;100137.10;105693;1279;22535;-77
2022/09/09 04:58:45;;;;;;;7.80;4.60;;;;;;;13.59;73.32;100135.71;105905;1274;26487;-85
2022/09/09 05:01:19;;;;;;;5.90;5.30;;;;;;;13.58;73.56;100140.69;106070;1274;22524;-84
2022/09/09 05:03:48;;;;;;;5.90;4.30;;;;;;;13.60;73.69;100136.58;105957;1275;22528;-84
2022/09/09 05:06:21;;;;;;;7.40;4.50;;;;;;;13.62;73.50;100138.83;106368;1270;25175;-83
2022/09/09 05:08:53;;;;;;;6.00;5.00;;;;;;;13.59;73.45;100141.55;106866;1274;22550;-85
2022/09/09 05:11:28;;;;;;;4.70;4.10;;;;;;;13.58;73.59;100141.92;106507;1274;22552;-82
2022/09/09 05:14:01;;;;;;;4.90;4.10;;;;;;;13.61;73.64;100143.98;106030;1274;22558;-80
2022/09/09 05:16:29;;;;;;;5.40;3.80;;;;;;;13.63;73.69;100136.69;106437;1274;25360;-84
2022/09/09 05:18:58;;;;;;;5.10;4.60;;;;;;;13.69;73.65;100140.25;106348;1276;22529;-83
2022/09/09 05:21:32;;;;;;;5.10;4.10;;;;;;;13.67;73.56;100138.20;106149;1274;23225;-78
2022/09/09 05:24:01;;;;;;;4.30;3.90;;;;;;;13.65;73.68;100143.02;106118;1274;24212;-77
2022/09/09 05:26:31;;;;;;;3.80;3.20;;;;;;;13.63;73.61;100140.91;106811;1274;25389;-81
2022/09/09 05:29:00;;;;;;;5.40;4.10;;;;;;;13.66;73.62;100140.69;106758;1274;22540;-83
2022/09/09 05:31:31;;;;;;;7.40;4.40;;;;;;;13.68;73.80;100140.81;106572;1274;25415;-81
2022/09/09 05:34:01;;;;;;;5.10;3.50;;;;;;;13.73;73.71;100140.33;106787;1270;22591;-79
2022/09/09 05:36:29;;;;;;;4.00;3.30;;;;;;;13.74;73.83;100144.89;106585;1269;22526;-80
2022/09/09 05:38:56;;;;;;;4.70;4.10;;;;;;;13.75;73.63;100142.04;106755;1267;22526;-83
2022/09/09 05:41:25;;;;;;;4.10;3.70;;;;;;;13.75;73.91;100143.10;106634;1267;25246;-79
2022/09/09 05:43:54;;;;;;;5.20;4.00;;;;;;;13.77;73.84;100145.16;106481;1273;25362;-77
2022/09/09 05:46:24;;;;;;;4.90;3.70;;;;;;;13.80;73.91;100143.49;106197;1273;22538;-79
2022/09/09 05:48:53;;;;;;;4.50;3.70;;;;;;;13.80;73.69;100139.77;106972;1273;24285;-84
2022/09/09 05:51:30;;;;;;;4.30;3.80;;;;;;;13.78;73.61;100143.20;106374;1273;22685;-81
2022/09/09 05:53:59;;;;;;;4.80;3.70;;;;;;;13.79;73.76;100138.21;106512;1277;25355;-80
2022/09/09 05:56:29;;;;;;;5.00;3.30;;;;;;;13.80;73.73;100144.58;105982;1277;22556;-83
2022/09/09 05:58:59;;;;;;;4.10;3.40;;;;;;;13.80;73.75;100145.98;105665;1283;24329;-84
2022/09/09 06:01:32;;;;;;;4.90;3.30;;;;;;;13.81;73.83;100149.66;105820;1277;23940;-79
2022/09/09 06:04:01;;;;;;;4.10;3.60;;;;;;;13.85;73.84;100147.25;105789;1277;22543;-81
2022/09/09 06:06:39;;;;;;;5.50;3.80;;;;;;;13.88;73.96;100148.26;105769;1278;25224;-80
2022/09/09 06:09:11;;;;;;;5.20;3.70;;;;;;;13.89;74.05;100148.25;105815;1277;25422;-81
2022/09/09 06:11:40;;;;;;;3.80;3.40;;;;;;;13.86;73.94;100152.53;105886;1274;25236;-79
2022/09/09 06:14:09;;;;;;;4.50;4.10;;;;;;;13.83;73.89;100156.52;105961;1274;22649;-80
2022/09/09 06:16:39;;;;;;;3.80;3.40;;;;;;;13.79;73.89;100155.57;106148;1267;24701;-81
2022/09/09 06:19:12;;;;;;;4.10;3.10;;;;;;;13.78;74.26;100158.42;106615;1267;23944;-83
2022/09/09 06:21:42;;;;;;;4.50;3.30;;;;;;;13.78;74.09;100161.96;106425;1269;25405;-83
2022/09/09 06:24:13;;;;;;;5.70;3.70;;;;;;;13.78;74.27;100165.51;106589;1268;25240;-81
2022/09/09 06:26:41;;;;;;;4.40;3.20;;;;;;;13.82;74.44;100170.54;106479;1267;23952;-80
2022/09/09 06:29:11;;;;;;;5.70;3.50;;;;;;;13.84;74.46;100168.17;106780;1268;25287;-80
2022/09/09 06:31:41;;;;;;;3.70;3.30;;;;;;;13.86;74.35;100166.36;108408;1267;22644;-83
2022/09/09 06:34:16;;;;;;;4.10;3.40;;;;;;;13.91;74.43;100171.70;109246;1267;23845;-83
2022/09/09 06:36:47;;;;;;;4.50;3.50;;;;;;;13.98;74.51;100169.23;109272;1267;22683;-85
2022/09/09 06:39:16;;;;;;;3.70;3.40;;;;;;;13.99;74.29;100170.77;109586;1267;22527;-80
2022/09/09 06:41:44;;;;;;;5.60;3.70;;;;;;;13.97;74.03;100166.94;109773;1268;22592;-89
2022/09/09 06:44:41;;;;;;;3.20;2.90;;;;;;;13.99;74.27;100168.14;109320;1268;22512;-83
2022/09/09 06:47:15;;;;;;;4.60;3.30;;;;;;;14.03;74.22;100172.46;108771;1274;24203;-80
2022/09/09 06:49:49;;;;;;;4.60;3.30;;;;;;;14.09;74.22;100171.23;107020;1275;22558;-83
2022/09/09 06:52:18;;;;;;;4.30;3.60;;;;;;;14.13;74.28;100170.77;106279;1275;23967;-82
2022/09/09 06:54:45;;;;;;;4.00;3.50;;;;;;;14.13;74.20;100173.96;106395;1276;23598;-84
2022/09/09 06:57:12;;;;;;;5.40;3.60;;;;;;;14.10;74.29;100176.69;106046;1276;26508;-81
2022/09/09 07:00:03;;;;;;;3.40;3.10;;;;;;;14.14;74.37;100176.95;106210;1276;25855;-88
2022/09/09 07:06:49;;;;;;;5.30;4.10;;;;;;;14.18;74.42;100179.84;106315;1274;24223;-86
2022/09/09 07:09:20;;;;;;;4.50;3.80;;;;;;;14.17;74.41;100183.59;106001;1279;22576;-78
2022/09/09 07:11:52;;;;;;;4.70;3.70;;;;;;;14.13;74.18;100184.77;105887;1274;22794;-80
2022/09/09 07:14:22;;;;;;;6.20;4.40;;;;;;;14.16;74.38;100189.83;106368;1276;24422;-80
2022/09/09 07:16:57;;;;;;;7.30;5.00;;;;;;;14.12;74.30;100187.97;107624;1273;24359;-79
2022/09/09 07:19:30;;;;;;;6.50;4.60;;;;;;;14.15;74.45;100186.14;107731;1273;22658;-81
2022/09/09 07:21:57;;;;;;;6.00;5.00;;;;;;;14.18;74.55;100189.95;107062;1273;23309;-80
2022/09/09 07:24:24;;;;;;;4.80;4.20;;;;;;;14.18;74.53;100189.59;106966;1273;25642;-80
2022/09/09 07:26:51;;;;;;;6.40;4.10;;;;;;;14.21;74.47;100192.16;107046;1270;22552;-82
2022/09/09 07:29:40;;;;;;;6.20;4.40;;;;;;;14.23;74.49;100197.76;107230;1271;25345;-89
2022/09/09 07:32:11;;;;;;;5.60;4.40;;;;;;;14.22;74.43;100202.56;107136;1270;22461;-82
2022/09/09 07:34:38;;;;;;;6.40;5.20;;;;;;;14.25;74.57;100204.99;106516;1268;22670;-85
2022/09/09 07:37:05;;;;;;;6.20;5.60;;;;;;;14.25;74.56;100201.61;106630;1270;25487;-88
2022/09/09 07:39:33;;;;;;;6.90;5.50;;;;;;;14.21;74.45;100202.43;106358;1273;24125;-88
2022/09/09 07:42:02;;;;;;;6.20;5.00;;;;;;;14.21;74.58;100205.62;106498;1268;22515;-85
2022/09/09 07:44:34;;;;;;;6.00;4.90;;;;;;;14.24;74.68;100207.84;106445;1269;25225;-86
2022/09/09 07:47:12;;;;;;;8.70;5.50;;;;;;;14.25;74.69;100209.77;106419;1274;22522;-87
2022/09/09 07:49:46;;;;;;;7.80;5.80;;;;;;;14.28;74.86;100206.85;106345;1274;25387;-88
2022/09/09 07:52:16;;;;;;;5.70;5.10;;;;;;;14.32;74.88;100200.20;106726;1274;23926;-88
2022/09/09 07:54:48;;;;;;;6.80;5.60;;;;;;;14.32;74.65;100206.56;106394;1277;22493;-89
2022/09/09 07:57:17;;;;;;;6.30;5.20;;;;;;;14.34;74.82;100206.34;106391;1274;22551;-85
2022/09/09 07:59:46;;;;;;;8.20;5.90;;;;;;;14.38;74.84;100213.84;106390;1274;25261;-81
2022/09/09 08:02:13;;;;;;;6.30;5.70;;;;;;;14.38;74.78;100213.67;106881;1262;22545;-81
2022/09/09 08:04:40;;;;;;;8.60;6.70;;;;;;;14.34;74.82;100222.45;106042;1271;25312;-82
2022/09/09 08:07:07;;;;;;;6.40;5.70;;;;;;;14.36;74.95;100223.83;106150;1273;22892;-82
2022/09/09 08:09:40;;;;;;;7.50;6.30;;;;;;;14.40;75.00;100229.74;106193;1273;25410;-81
2022/09/09 08:12:16;;;;;;;6.00;5.30;;;;;;;14.43;75.00;100226.27;106254;1273;24134;-83
2022/09/09 08:14:44;;;;;;;7.20;6.40;;;;;;;14.47;74.88;100230.93;106931;1273;25266;-83
2022/09/09 08:17:11;;;;;;;7.30;6.60;;;;;;;14.48;74.96;100233.59;106669;1273;25683;-82
2022/09/09 08:19:38;;;;;;;6.70;6.10;;;;;;;14.51;75.10;100234.55;106812;1272;25369;-83
2022/09/09 08:22:09;;;;;;;5.90;5.40;;;;;;;14.47;74.71;100236.77;106633;1273;25248;-77
2022/09/09 08:24:39;;;;;;;12.50;7.40;;;;;;;14.48;75.06;100238.02;106002;1279;25374;-80
2022/09/09 08:27:06;;;;;;;7.40;6.60;;;;;;;14.52;75.15;100239.16;106469;1278;22547;-78
2022/09/09 08:29:33;;;;;;;8.50;7.20;;;;;;;14.57;75.02;100239.20;106392;1278;25369;-79
2022/09/09 08:32:01;;;;;;;8.20;7.50;;;;;;;14.55;74.77;100238.17;105975;1279;25463;-79
2022/09/09 08:34:30;;;;;;;7.90;7.10;;;;;;;14.54;74.74;100244.75;106129;1278;25426;-77
2022/09/09 08:36:58;;;;;;;8.70;7.60;;;;;;;14.54;74.58;100243.70;105901;1278;25244;-75
2022/09/09 08:39:32;;;;;;;9.30;6.80;;;;;;;14.43;74.26;100248.23;105816;1278;25256;-83
2022/09/09 08:42:02;;;;;;;8.70;7.60;;;;;;;14.38;74.55;100248.04;105564;1278;25307;-77
2022/09/09 08:44:43;;;;;;;9.40;7.40;;;;;;;14.39;75.04;100248.20;105762;1279;22678;-76
2022/09/09 08:47:34;;;;;;;10.10;7.70;;;;;;;14.42;75.18;100246.15;105790;1278;25526;-77
2022/09/09 08:50:35;;;;;;;8.00;7.20;;;;;;;14.51;75.44;100246.98;105294;1284;22551;-77
2022/09/09 08:53:07;;;;;;;8.50;7.40;;;;;;;14.58;75.31;100247.99;105105;1285;25389;-77
2022/09/09 08:56:02;;;;;;;9.00;8.00;;;;;;;14.62;75.09;100247.90;104639;1290;26519;-78
2022/09/09 08:59:07;;;;;;;11.30;8.30;;;;;;;14.63;75.09;100252.48;104742;1290;22557;-75
2022/09/09 09:01:43;;;;;;;9.10;8.20;;;;;;;14.68;75.14;100253.94;105341;1282;25239;-78
2022/09/09 09:05:02;;;;;;;9.60;7.90;;;;;;;14.75;75.10;100252.86;105243;1284;22645;-76
2022/09/09 09:08:03;;;;;;;10.60;8.50;;;;;;;14.79;74.83;100250.28;105117;1278;25254;-76
2022/09/09 09:11:05;;;;;;;10.90;9.30;;;;;;;14.80;74.93;100250.96;105687;1278;24770;-79
2022/09/09 09:13:50;;;;;;;10.70;9.20;;;;;;;14.84;74.84;100255.84;105763;1271;25253;-78
2022/09/09 09:16:36;;;;;;;9.70;8.40;;;;;;;14.83;74.82;100260.45;106164;1273;25365;-79
2022/09/09 09:19:04;;;;;;;9.20;8.10;;;;;;;14.85;74.70;100256.33;106162;1271;25222;-80
2022/09/09 09:21:51;;;;;;;11.40;9.30;;;;;;;14.88;74.66;100260.68;106285;1271;24248;-78
2022/09/09 09:24:46;;;;;;;12.30;10.50;;;;;;;14.92;74.62;100266.23;106228;1273;24435;-81
2022/09/09 09:27:20;;;;;;;12.00;10.20;;;;;;;14.94;74.85;100270.77;106140;1273;25355;-78
2022/09/09 09:29:52;;;;;;;11.40;9.20;;;;;;;14.95;74.75;100280.50;106168;1271;25230;-78
2022/09/09 09:32:41;;;;;;;13.10;10.10;;;;;;;14.93;74.85;100278.23;106335;1272;24190;-77
2022/09/09 09:35:13;;;;;;;12.60;9.10;;;;;;;14.98;74.81;100280.08;106442;1273;22524;-77
2022/09/09 09:37:43;;;;;;;11.50;9.50;;;;;;;15.02;74.95;100279.60;107014;1273;22532;-76
2022/09/09 09:40:31;;;;;;;10.90;9.90;;;;;;;15.06;74.88;100276.81;107714;1272;22607;-76
2022/09/09 09:43:00;;;;;;;12.10;10.80;;;;;;;15.08;74.74;100277.27;107398;1277;22706;-76
2022/09/09 09:45:35;;;;;;;11.20;9.90;;;;;;;15.09;74.81;100276.90;106919;1277;22801;-76
2022/09/09 09:48:09;;;;;;;11.10;9.70;;;;;;;15.12;74.74;100279.32;107005;1282;22550;-77
2022/09/09 09:50:53;;;;;;;14.50;10.00;;;;;;;15.11;74.44;100275.62;107028;1282;22572;-82
2022/09/09 09:53:28;;;;;;;11.70;10.30;;;;;;;15.10;74.56;100277.76;108344;1282;22562;-86
2022/09/09 09:56:15;;;;;;;14.80;10.50;;;;;;;15.15;74.65;100276.75;106673;1287;22603;-79
2022/09/09 09:58:45;;;;;;;12.50;10.10;;;;;;;15.20;74.66;100274.10;105073;1287;22567;-79
2022/09/09 10:01:29;;;;;;;10.60;9.20;;;;;;;15.21;74.48;100278.32;105325;1284;22497;-79
2022/09/09 10:04:24;;;;;;;13.80;9.40;;;;;;;15.27;74.57;100274.59;105552;1285;23401;-78
2022/09/09 10:06:52;;;;;;;11.40;10.20;;;;;;;15.30;74.42;100269.89;104969;1284;24885;-82
2022/09/09 10:09:28;;;;;;;12.40;11.20;;;;;;;15.33;74.27;100270.16;105483;1284;22736;-83
2022/09/09 10:12:29;;;;;;;14.10;10.90;;;;;;;15.32;74.20;100274.27;105153;1284;23956;-79
2022/09/09 10:14:56;;;;;;;12.70;11.00;;;;;;;15.23;74.04;100279.88;105623;1278;22544;-74
2022/09/09 10:17:36;;;;;;;11.40;10.20;;;;;;;15.22;74.31;100288.23;105860;1278;24485;-79
2022/09/09 10:20:35;;;;;;;13.80;11.00;;;;;;;15.24;74.34;100286.75;105954;1279;25830;-81
2022/09/09 10:23:37;;;;;;;11.60;10.40;;;;;;;15.29;74.36;100290.69;106669;1278;24503;-86
2022/09/09 10:26:46;;;;;;;15.80;11.50;;;;;;;15.29;74.17;100294.94;106804;1281;24173;-87
2022/09/09 10:29:34;;;;;;;12.90;10.50;;;;;;;15.28;74.15;100296.39;104553;1290;22569;-75
2022/09/09 10:32:29;;;;;;;15.00;10.60;;;;;;;15.28;74.09;100297.29;104480;1291;22739;-75
2022/09/09 10:35:25;;;;;;;11.90;10.70;;;;;;;15.29;74.12;100310.02;104244;1294;24259;-73
2022/09/09 10:38:13;;;;;;;14.60;11.70;;;;;;;15.27;74.00;100314.89;103663;1300;24380;-73
2022/09/09 10:40:53;;;;;;;15.50;11.70;;;;;;;15.28;74.29;100318.76;103707;1300;25869;-75
2022/09/09 10:43:46;;;;;;;12.70;11.40;;;;;;;15.30;74.29;100322.06;103762;1299;22960;-75
2022/09/09 10:46:43;;;;;;;13.50;11.40;;;;;;;15.28;74.10;100332.22;103658;1299;22655;-77
2022/09/09 10:49:17;;;;;;;13.70;11.90;;;;;;;15.28;74.29;100332.92;103857;1299;26888;-75
2022/09/09 10:52:17;;;;;;;14.10;12.60;;;;;;;15.31;74.32;100333.20;104462;1289;22755;-75
2022/09/09 10:55:18;;;;;;;13.60;12.00;;;;;;;15.37;74.47;100333.75;104969;1287;24241;-76
2022/09/09 10:57:53;;;;;;;17.60;14.00;;;;;;;15.39;74.47;100335.98;105540;1281;24361;-78
2022/09/09 11:00:42;;;;;;;17.80;14.70;;;;;;;15.42;74.47;100334.64;105457;1281;22626;-78
2022/09/09 11:03:35;;;;;;;17.10;13.90;;;;;;;15.44;74.32;100338.69;105487;1281;22707;-74
2022/09/09 11:06:11;;;;;;;15.40;13.80;;;;;;;15.44;74.24;100344.89;105647;1276;22544;-77
2022/09/09 11:08:39;;;;;;;20.20;14.60;;;;;;;15.43;74.23;100345.80;106163;1274;24087;-76
2022/09/09 11:11:17;;;;;;;20.40;14.50;;;;;;;15.46;74.27;100343.59;106066;1276;22541;-74
2022/09/09 11:13:51;;;;;;;18.80;15.10;;;;;;;15.51;74.48;100351.06;106175;1274;22605;-73
2022/09/09 11:16:41;;;;;;;19.20;16.70;;;;;;;15.53;74.35;100352.07;106260;1275;25584;-75
2022/09/09 11:19:43;;;;;;;18.80;15.00;;;;;;;15.46;74.11;100352.99;106320;1275;22550;-75
2022/09/09 11:22:41;;;;;;;18.90;14.40;;;;;;;15.40;74.35;100357.44;106124;1274;24280;-76
2022/09/09 11:25:15;;;;;;;;;;;;;;;15.41;74.55;100355.63;106179;1275;22669;-75
2022/09/09 11:27:58;;;;;;;18.00;15.00;;;;;;;15.43;74.63;100355.40;105782;1278;22831;-76
2022/09/09 11:31:11;;;;;;;21.60;16.90;;;;;;;15.47;74.63;100348.52;105916;1278;22612;-76
2022/09/09 11:33:48;;;;;;;18.40;16.40;;;;;;;15.52;74.49;100350.87;105183;1284;25633;-76
2022/09/09 11:36:28;;;;;;;19.00;16.60;;;;;;;15.52;74.45;100351.58;105246;1282;25379;-76
2022/09/09 11:39:22;;;;;;;19.90;16.50;;;;;;;15.55;74.44;100355.91;105413;1282;24374;-77
2022/09/09 11:41:50;;;;;;;22.00;17.10;;;;;;;15.57;74.36;100355.30;104977;1288;26528;-76
2022/09/09 11:44:41;;;;;;;23.00;19.10;;;;;;;15.60;74.31;100353.46;103480;1293;1598914;-76
2022/09/09 11:47:29;;;;;;;22.40;18.50;;;;;;;15.64;74.29;100349.08;104243;1294;25889;-79
2022/09/09 11:50:26;;;;;;;21.00;16.30;;;;;;;15.66;74.33;100352.02;104256;1294;22860;-77
2022/09/09 11:53:13;;;;;;;22.00;17.80;;;;;;;15.70;74.35;100349.62;104354;1290;25393;-80
2022/09/09 11:55:41;;;;;;;20.10;16.60;;;;;;;15.77;74.53;100351.70;104700;1290;24493;-80
2022/09/09 11:58:11;;;;;;;19.50;16.70;;;;;;;15.84;74.44;100353.98;104629;1290;24279;-76
2022/09/09 12:00:47;;;;;;;23.60;18.70;;;;;;;15.83;74.27;100352.92;104740;1291;22548;-74
2022/09/09 12:03:47;;;;;;;22.00;18.40;;;;;;;15.85;74.06;100358.89;104973;1284;24372;-74
2022/09/09 12:06:46;;;;;;;22.60;17.50;;;;;;;15.75;73.89;100364.00;105291;1281;22688;-75
2022/09/09 12:09:25;;;;;;;23.60;19.50;;;;;;;15.77;74.29;100361.64;105608;1281;26900;-76